createdAt,value
2019-04-30T00:00:15.795Z,92.98
2019-04-30T00:01:17.483Z,92.88
2019-04-30T00:02:15.921Z,92.69
2019-04-30T00:03:18.023Z,92.41
2019-04-30T00:04:15.776Z,92.98
2019-04-30T00:05:17.790Z,93.27
2019-04-30T00:06:15.686Z,93.17
2019-04-30T00:07:18.802Z,92.60
2019-04-30T00:08:16.040Z,93.36
2019-04-30T00:09:19.002Z,93.17
2019-04-30T00:10:15.532Z,93.08
2019-04-30T00:11:19.290Z,92.98
2019-04-30T00:12:15.818Z,92.79
2019-04-30T00:13:20.607Z,92.88
2019-04-30T00:14:15.747Z,92.88
2019-04-30T00:15:19.458Z,93.55
2019-04-30T00:16:15.995Z,92.79
2019-04-30T00:17:19.703Z,92.88
2019-04-30T00:18:16.269Z,93.17
2019-04-30T00:19:19.725Z,93.12
2019-04-30T00:20:17.699Z,92.55
2019-04-30T00:21:18.716Z,92.41
2019-04-30T00:22:16.822Z,92.60
2019-04-30T00:23:18.097Z,92.22
2019-04-30T00:24:17.087Z,92.60
2019-04-30T00:25:19.659Z,92.12
2019-04-30T00:26:17.464Z,91.64
2019-04-30T00:27:21.024Z,91.64
2019-04-30T00:28:17.611Z,92.07
2019-04-30T00:29:26.412Z,92.12
2019-04-30T00:30:17.865Z,91.46
2019-04-30T00:31:23.606Z,91.83
2019-04-30T00:32:18.123Z,91.64
2019-04-30T00:33:22.230Z,91.69
2019-04-30T00:34:18.444Z,91.83
2019-04-30T00:35:19.701Z,91.83
2019-04-30T00:36:18.700Z,91.83
2019-04-30T00:37:19.062Z,91.93
2019-04-30T00:38:18.974Z,92.03
2019-04-30T00:39:19.105Z,91.83
2019-04-30T00:40:21.733Z,92.41
2019-04-30T00:41:19.370Z,92.32
2019-04-30T00:42:24.361Z,92.50
2019-04-30T00:43:19.647Z,92.41
2019-04-30T00:44:23.853Z,92.50
2019-04-30T00:45:19.945Z,91.83
2019-04-30T00:46:25.449Z,91.64
2019-04-30T00:47:20.210Z,92.03
2019-04-30T00:48:27.929Z,92.12
2019-04-30T00:49:23.129Z,91.83
2019-04-30T00:50:20.615Z,92.12
2019-04-30T00:51:21.476Z,91.27
2019-04-30T00:52:20.871Z,91.64
2019-04-30T00:53:21.016Z,91.74
2019-04-30T00:54:22.416Z,91.27
2019-04-30T00:55:21.237Z,91.36
2019-04-30T00:56:24.665Z,90.88
2019-04-30T00:57:21.515Z,91.17
2019-04-30T00:58:28.507Z,91.07
2019-04-30T00:59:21.770Z,90.64
2019-04-30T01:00:25.936Z,90.64
2019-04-30T01:01:22.045Z,90.73
2019-04-30T01:02:28.705Z,90.55
2019-04-30T01:03:22.305Z,91.17
2019-04-30T01:04:24.576Z,91.07
2019-04-30T01:05:22.601Z,91.07
2019-04-30T01:06:24.612Z,91.27
2019-04-30T01:07:22.883Z,90.50
2019-04-30T01:08:27.235Z,90.50
2019-04-30T01:09:23.154Z,90.73
2019-04-30T01:10:24.802Z,90.59
2019-04-30T01:11:25.295Z,90.88
2019-04-30T01:12:27.796Z,90.88
2019-04-30T01:13:23.691Z,90.50
2019-04-30T01:14:30.283Z,90.41
2019-04-30T01:15:23.936Z,90.55
2019-04-30T01:16:30.236Z,90.73
2019-04-30T01:17:24.218Z,90.03
2019-04-30T01:18:28.592Z,90.03
2019-04-30T01:19:30.187Z,90.69
2019-04-30T01:20:31.025Z,90.98
2019-04-30T01:21:24.754Z,90.31
2019-04-30T01:22:28.345Z,89.97
2019-04-30T01:23:25.005Z,89.78
2019-04-30T01:24:28.419Z,90.03
2019-04-30T01:25:25.283Z,89.74
2019-04-30T01:26:27.746Z,90.22
2019-04-30T01:27:25.539Z,89.93
2019-04-30T01:28:25.674Z,89.74
2019-04-30T01:29:25.801Z,90.03
2019-04-30T01:30:25.919Z,90.22
2019-04-30T01:31:26.065Z,90.22
2019-04-30T01:32:26.229Z,90.12
2019-04-30T01:33:28.370Z,90.03
2019-04-30T01:34:26.482Z,90.22
2019-04-30T01:35:30.864Z,90.22
2019-04-30T01:36:26.744Z,90.22
2019-04-30T01:37:29.598Z,90.41
2019-04-30T01:38:28.678Z,90.31
2019-04-30T01:39:28.466Z,89.54
2019-04-30T01:40:28.546Z,89.74
2019-04-30T01:41:31.320Z,90.03
2019-04-30T01:42:28.424Z,90.12
2019-04-30T01:43:31.759Z,89.45
2019-04-30T01:44:29.515Z,89.83
2019-04-30T01:45:31.505Z,89.64
2019-04-30T01:46:29.172Z,90.12
2019-04-30T01:47:29.554Z,89.45
2019-04-30T01:48:29.240Z,89.45
2019-04-30T01:49:30.048Z,89.07
2019-04-30T01:50:29.217Z,89.17
2019-04-30T01:51:28.712Z,89.45
2019-04-30T01:52:35.007Z,89.45
2019-04-30T01:53:28.995Z,89.45
2019-04-30T01:54:29.248Z,89.45
2019-04-30T01:55:29.459Z,89.45
2019-04-30T01:56:29.398Z,89.45
2019-04-30T01:57:29.544Z,89.26
2019-04-30T01:58:30.148Z,89.45
2019-04-30T01:59:29.801Z,89.26
2019-04-30T02:00:29.949Z,89.45
2019-04-30T02:01:31.106Z,89.17
2019-04-30T02:02:30.211Z,89.17
2019-04-30T02:03:30.348Z,89.36
2019-04-30T02:04:31.457Z,88.69
2019-04-30T02:05:30.630Z,88.78
2019-04-30T02:06:30.760Z,89.17
2019-04-30T02:07:30.888Z,88.98
2019-04-30T02:08:31.036Z,89.17
2019-04-30T02:09:31.159Z,88.78
2019-04-30T02:10:31.291Z,88.31
2019-04-30T02:11:31.430Z,88.50
2019-04-30T02:12:31.575Z,88.78
2019-04-30T02:13:34.456Z,88.21
2019-04-30T02:14:31.827Z,88.12
2019-04-30T02:15:31.964Z,87.93
2019-04-30T02:16:32.102Z,88.12
2019-04-30T02:17:32.234Z,88.02
2019-04-30T02:18:32.356Z,87.93
2019-04-30T02:19:32.490Z,88.02
2019-04-30T02:20:32.639Z,88.02
2019-04-30T02:21:33.456Z,87.83
2019-04-30T02:22:32.909Z,88.02
2019-04-30T02:23:33.031Z,88.02
2019-04-30T02:24:33.176Z,88.12
2019-04-30T02:25:33.302Z,87.93
2019-04-30T02:26:33.429Z,88.02
2019-04-30T02:27:33.575Z,87.93
2019-04-30T02:28:33.744Z,88.50
2019-04-30T02:29:33.868Z,88.17
2019-04-30T02:30:33.995Z,88.40
2019-04-30T02:31:34.152Z,88.40
2019-04-30T02:32:34.283Z,88.12
2019-04-30T02:33:34.416Z,87.98
2019-04-30T02:34:34.544Z,87.98
2019-04-30T02:35:34.684Z,87.93
2019-04-30T02:36:34.939Z,88.17
2019-04-30T02:37:34.934Z,88.55
2019-04-30T02:38:35.059Z,87.98
2019-04-30T02:39:35.219Z,88.17
2019-04-30T02:40:35.334Z,88.36
2019-04-30T02:41:35.464Z,87.98
2019-04-30T02:42:35.585Z,87.88
2019-04-30T02:43:35.730Z,87.60
2019-04-30T02:44:35.850Z,87.60
2019-04-30T02:45:35.991Z,87.50
2019-04-30T02:46:36.137Z,87.98
2019-04-30T02:47:36.269Z,88.07
2019-04-30T02:48:39.317Z,87.98
2019-04-30T02:49:36.521Z,88.36
2019-04-30T02:50:39.192Z,88.26
2019-04-30T02:51:39.762Z,88.45
2019-04-30T02:52:36.925Z,88.93
2019-04-30T02:53:37.078Z,88.84
2019-04-30T02:54:39.438Z,88.74
2019-04-30T02:55:37.331Z,89.31
2019-04-30T02:56:40.073Z,89.40
2019-04-30T02:57:40.091Z,89.40
2019-04-30T02:58:40.829Z,89.40
2019-04-30T02:59:40.290Z,89.22
2019-04-30T03:00:39.419Z,89.12
2019-04-30T03:01:40.240Z,89.22
2019-04-30T03:02:39.375Z,89.03
2019-04-30T03:03:39.277Z,88.93
2019-04-30T03:04:39.553Z,88.64
2019-04-30T03:05:39.247Z,88.84
2019-04-30T03:06:40.097Z,88.55
2019-04-30T03:07:40.694Z,88.64
2019-04-30T03:08:40.399Z,88.45
2019-04-30T03:09:39.406Z,88.64
2019-04-30T03:10:40.184Z,88.45
2019-04-30T03:11:40.531Z,88.07
2019-04-30T03:12:40.467Z,87.88
2019-04-30T03:13:42.530Z,88.07
2019-04-30T03:14:40.125Z,87.98
2019-04-30T03:15:39.958Z,87.60
2019-04-30T03:16:40.285Z,87.79
2019-04-30T03:17:40.217Z,88.07
2019-04-30T03:18:40.345Z,88.17
2019-04-30T03:19:40.490Z,87.79
2019-04-30T03:20:40.602Z,87.88
2019-04-30T03:21:40.761Z,88.17
2019-04-30T03:22:40.886Z,87.88
2019-04-30T03:23:41.023Z,87.88
2019-04-30T03:24:42.776Z,88.26
2019-04-30T03:25:41.291Z,87.98
2019-04-30T03:26:41.412Z,87.98
2019-04-30T03:27:42.579Z,87.79
2019-04-30T03:28:41.675Z,88.31
2019-04-30T03:29:41.821Z,87.88
2019-04-30T03:30:42.675Z,87.93
2019-04-30T03:31:45.281Z,87.74
2019-04-30T03:32:43.262Z,87.65
2019-04-30T03:33:42.788Z,88.12
2019-04-30T03:34:42.847Z,87.27
2019-04-30T03:35:47.701Z,88.22
2019-04-30T03:36:42.775Z,87.93
2019-04-30T03:37:42.881Z,87.84
2019-04-30T03:38:43.012Z,88.31
2019-04-30T03:39:43.161Z,88.03
2019-04-30T03:40:43.288Z,88.70
2019-04-30T03:41:43.419Z,88.41
2019-04-30T03:42:43.545Z,88.70
2019-04-30T03:43:43.715Z,87.84
2019-04-30T03:44:43.827Z,88.03
2019-04-30T03:45:43.953Z,88.51
2019-04-30T03:46:44.091Z,87.74
2019-04-30T03:47:44.241Z,88.70
2019-04-30T03:48:44.366Z,88.12
2019-04-30T03:49:44.500Z,88.03
2019-04-30T03:50:53.436Z,88.03
2019-04-30T03:51:44.847Z,88.03
2019-04-30T03:52:44.851Z,88.12
2019-04-30T03:53:44.977Z,88.12
2019-04-30T03:54:45.127Z,87.74
2019-04-30T03:55:45.290Z,88.41
2019-04-30T03:56:45.413Z,88.41
2019-04-30T03:57:45.547Z,88.41
2019-04-30T03:58:45.676Z,88.70
2019-04-30T03:59:45.803Z,87.93
2019-04-30T04:00:46.720Z,87.93
2019-04-30T04:01:46.067Z,88.03
2019-04-30T04:02:46.200Z,87.93
2019-04-30T04:03:46.334Z,87.07
2019-04-30T04:04:52.077Z,88.03
2019-04-30T04:05:46.598Z,87.27
2019-04-30T04:06:49.041Z,87.17
2019-04-30T04:07:52.480Z,86.60
2019-04-30T04:08:49.050Z,87.27
2019-04-30T04:09:49.698Z,86.60
2019-04-30T04:10:50.223Z,86.88
2019-04-30T04:11:50.533Z,86.88
2019-04-30T04:12:49.856Z,86.60
2019-04-30T04:13:49.510Z,86.88
2019-04-30T04:14:50.718Z,87.17
2019-04-30T04:15:49.913Z,86.88
2019-04-30T04:16:50.425Z,86.88
2019-04-30T04:17:50.426Z,86.79
2019-04-30T04:18:50.043Z,86.69
2019-04-30T04:19:49.443Z,86.03
2019-04-30T04:20:52.033Z,86.32
2019-04-30T04:21:51.016Z,86.79
2019-04-30T04:22:49.687Z,85.46
2019-04-30T04:23:49.423Z,85.64
2019-04-30T04:24:50.434Z,86.32
2019-04-30T04:25:49.838Z,86.51
2019-04-30T04:26:50.219Z,86.60
2019-04-30T04:27:50.979Z,86.32
2019-04-30T04:28:49.893Z,86.41
2019-04-30T04:29:51.100Z,86.32
2019-04-30T04:30:50.684Z,85.74
2019-04-30T04:31:50.410Z,86.32
2019-04-30T04:32:50.312Z,85.46
2019-04-30T04:33:52.782Z,86.12
2019-04-30T04:34:50.879Z,85.36
2019-04-30T04:35:50.479Z,86.60
2019-04-30T04:36:50.892Z,85.64
2019-04-30T04:37:50.737Z,85.55
2019-04-30T04:38:50.960Z,86.51
2019-04-30T04:39:50.997Z,85.46
2019-04-30T04:40:51.133Z,85.36
2019-04-30T04:41:51.258Z,86.22
2019-04-30T04:42:51.380Z,85.55
2019-04-30T04:43:51.519Z,85.64
2019-04-30T04:44:51.646Z,85.84
2019-04-30T04:45:51.773Z,85.93
2019-04-30T04:46:51.892Z,85.55
2019-04-30T04:47:52.034Z,86.32
2019-04-30T04:48:52.155Z,86.22
2019-04-30T04:49:53.925Z,86.03
2019-04-30T04:50:52.424Z,86.22
2019-04-30T04:51:52.536Z,85.55
2019-04-30T04:52:52.662Z,85.64
2019-04-30T04:53:52.796Z,86.51
2019-04-30T04:54:52.926Z,86.51
2019-04-30T04:55:53.054Z,86.51
2019-04-30T04:56:54.762Z,86.79
2019-04-30T04:57:53.302Z,86.22
2019-04-30T04:58:53.436Z,86.51
2019-04-30T04:59:53.574Z,87.17
2019-04-30T05:00:53.690Z,86.51
2019-04-30T05:01:53.823Z,86.88
2019-04-30T05:02:53.953Z,86.60
2019-04-30T05:03:54.081Z,87.27
2019-04-30T05:04:54.209Z,87.36
2019-04-30T05:05:54.341Z,86.79
2019-04-30T05:06:54.476Z,87.27
2019-04-30T05:07:54.595Z,86.79
2019-04-30T05:08:54.724Z,86.98
2019-04-30T05:09:54.880Z,86.98
2019-04-30T05:10:54.990Z,87.46
2019-04-30T05:11:55.113Z,86.51
2019-04-30T05:12:55.244Z,87.46
2019-04-30T05:13:55.375Z,86.98
2019-04-30T05:14:55.507Z,87.17
2019-04-30T05:15:55.635Z,86.88
2019-04-30T05:16:55.763Z,87.36
2019-04-30T05:17:55.889Z,86.98
2019-04-30T05:18:56.017Z,87.17
2019-04-30T05:19:56.148Z,86.79
2019-04-30T05:20:56.274Z,87.27
2019-04-30T05:21:56.419Z,86.69
2019-04-30T05:22:58.381Z,87.36
2019-04-30T05:23:56.677Z,86.88
2019-04-30T05:24:58.652Z,87.46
2019-04-30T05:25:58.835Z,87.27
2019-04-30T05:26:58.622Z,86.83
2019-04-30T05:27:58.723Z,87.69
2019-04-30T05:28:59.119Z,86.88
2019-04-30T05:29:59.493Z,87.02
2019-04-30T05:30:59.247Z,87.12
2019-04-30T05:31:58.531Z,87.12
2019-04-30T05:32:58.872Z,86.79
2019-04-30T05:33:58.885Z,86.69
2019-04-30T05:34:58.691Z,86.79
2019-04-30T05:35:59.414Z,85.93
2019-04-30T05:36:58.517Z,86.36
2019-04-30T05:37:59.287Z,85.50
2019-04-30T05:38:58.797Z,85.60
2019-04-30T05:40:00.975Z,85.78
2019-04-30T05:40:59.584Z,85.78
2019-04-30T05:41:59.036Z,85.60
2019-04-30T05:43:00.401Z,86.36
2019-04-30T05:43:59.297Z,86.36
2019-04-30T05:44:59.371Z,86.16
2019-04-30T05:45:59.517Z,86.36
2019-04-30T05:46:59.629Z,85.50
2019-04-30T05:47:59.784Z,85.97
2019-04-30T05:48:59.891Z,86.07
2019-04-30T05:50:00.019Z,85.50
2019-04-30T05:51:00.154Z,85.69
2019-04-30T05:52:00.290Z,85.31
2019-04-30T05:53:00.418Z,85.12
2019-04-30T05:54:00.544Z,84.74
2019-04-30T05:55:00.679Z,85.12
2019-04-30T05:56:03.061Z,84.83
2019-04-30T05:57:00.939Z,84.64
2019-04-30T05:58:01.518Z,84.83
2019-04-30T05:59:01.197Z,85.12
2019-04-30T06:00:01.329Z,84.74
2019-04-30T06:01:01.462Z,83.40
2019-04-30T06:02:01.591Z,82.83
2019-04-30T06:03:01.717Z,82.64
2019-04-30T06:04:01.846Z,83.02
2019-04-30T06:05:01.975Z,83.40
2019-04-30T06:06:02.097Z,83.50
2019-04-30T06:07:02.226Z,83.88
2019-04-30T06:08:02.364Z,83.50
2019-04-30T06:09:06.713Z,83.31
2019-04-30T06:10:02.613Z,83.50
2019-04-30T06:11:02.746Z,83.02
2019-04-30T06:12:02.874Z,82.92
2019-04-30T06:13:03.002Z,82.45
2019-04-30T06:14:03.130Z,82.07
2019-04-30T06:15:03.256Z,81.30
2019-04-30T06:16:03.398Z,81.68
2019-04-30T06:17:03.529Z,81.68
2019-04-30T06:18:13.265Z,80.83
2019-04-30T06:19:03.778Z,81.21
2019-04-30T06:20:15.281Z,80.26
2019-04-30T06:21:04.038Z,80.73
2019-04-30T06:22:07.787Z,80.16
2019-04-30T06:23:04.301Z,80.26
2019-04-30T06:24:04.431Z,81.68
2019-04-30T06:25:04.561Z,82.07
2019-04-30T06:26:09.579Z,83.21
2019-04-30T06:27:04.817Z,82.64
2019-04-30T06:28:04.947Z,82.64
2019-04-30T06:29:05.085Z,81.59
2019-04-30T06:30:05.206Z,81.82
2019-04-30T06:31:05.338Z,81.15
2019-04-30T06:32:05.475Z,80.11
2019-04-30T06:33:05.600Z,79.15
2019-04-30T06:34:05.733Z,78.49
2019-04-30T06:35:05.864Z,78.49
2019-04-30T06:36:05.993Z,78.01
2019-04-30T06:37:06.123Z,78.10
2019-04-30T06:38:06.255Z,78.01
2019-04-30T06:39:06.379Z,77.15
2019-04-30T06:40:06.511Z,76.57
2019-04-30T06:41:08.594Z,76.29
2019-04-30T06:42:10.760Z,76.29
2019-04-30T06:43:08.922Z,76.39
2019-04-30T06:44:07.028Z,76.77
2019-04-30T06:45:09.050Z,76.86
2019-04-30T06:46:08.823Z,76.39
2019-04-30T06:47:09.109Z,76.20
2019-04-30T06:48:08.979Z,75.43
2019-04-30T06:49:09.476Z,74.77
2019-04-30T06:50:09.689Z,74.57
2019-04-30T06:51:09.112Z,74.29
2019-04-30T06:52:19.545Z,74.01
2019-04-30T06:53:09.302Z,74.29
2019-04-30T06:54:08.586Z,74.01
2019-04-30T06:55:09.415Z,73.05
2019-04-30T06:56:08.959Z,74.29
2019-04-30T06:57:09.717Z,73.91
2019-04-30T06:58:15.018Z,74.29
2019-04-30T06:59:09.257Z,75.05
2019-04-30T07:00:09.831Z,74.19
2019-04-30T07:01:09.546Z,72.67
2019-04-30T07:02:09.384Z,72.86
2019-04-30T07:03:09.871Z,72.96
2019-04-30T07:04:10.472Z,72.19
2019-04-30T07:05:10.236Z,72.09
2019-04-30T07:06:09.892Z,71.23
2019-04-30T07:07:10.019Z,71.56
2019-04-30T07:08:12.095Z,73.28
2019-04-30T07:09:10.289Z,73.66
2019-04-30T07:10:16.791Z,72.51
2019-04-30T07:11:11.279Z,70.98
2019-04-30T07:12:22.697Z,71.75
2019-04-30T07:13:10.787Z,72.13
2019-04-30T07:14:10.946Z,70.61
2019-04-30T07:15:13.581Z,69.93
2019-04-30T07:16:11.215Z,69.37
2019-04-30T07:17:11.339Z,70.13
2019-04-30T07:18:11.484Z,69.84
2019-04-30T07:19:11.616Z,69.84
2019-04-30T07:20:11.754Z,70.51
2019-04-30T07:21:11.887Z,71.08
2019-04-30T07:22:12.020Z,70.89
2019-04-30T07:23:12.149Z,70.22
2019-04-30T07:24:12.295Z,70.13
2019-04-30T07:25:12.416Z,70.22
2019-04-30T07:26:13.900Z,69.65
2019-04-30T07:27:12.663Z,70.03
2019-04-30T07:28:12.805Z,69.93
2019-04-30T07:29:12.922Z,69.84
2019-04-30T07:30:13.049Z,69.37
2019-04-30T07:31:14.643Z,68.92
2019-04-30T07:32:13.318Z,67.93
2019-04-30T07:33:13.446Z,68.44
2019-04-30T07:34:13.573Z,68.16
2019-04-30T07:35:13.708Z,68.35
2019-04-30T07:36:13.837Z,67.30
2019-04-30T07:37:20.532Z,67.11
2019-04-30T07:38:14.127Z,66.44
2019-04-30T07:39:14.260Z,67.11
2019-04-30T07:40:14.413Z,66.82
2019-04-30T07:41:14.549Z,66.72
2019-04-30T07:42:14.680Z,67.87
2019-04-30T07:43:14.810Z,67.01
2019-04-30T07:44:30.016Z,67.21
2019-04-30T07:45:15.086Z,67.01
2019-04-30T07:46:15.221Z,67.11
2019-04-30T07:47:15.377Z,67.21
2019-04-30T07:48:15.522Z,67.01
2019-04-30T07:49:15.629Z,65.48
2019-04-30T07:50:16.478Z,65.10
2019-04-30T07:51:16.542Z,64.43
2019-04-30T07:52:16.590Z,64.05
2019-04-30T07:53:16.150Z,64.62
2019-04-30T07:54:16.312Z,65.58
2019-04-30T07:55:16.428Z,65.48
2019-04-30T07:56:25.524Z,63.76
2019-04-30T07:57:16.694Z,64.81
2019-04-30T07:58:20.213Z,64.53
2019-04-30T07:59:16.967Z,65.20
2019-04-30T08:00:19.186Z,65.20
2019-04-30T08:01:19.610Z,64.91
2019-04-30T08:02:20.556Z,63.86
2019-04-30T08:03:20.533Z,63.48
2019-04-30T08:04:18.824Z,62.27
2019-04-30T08:05:19.850Z,62.37
2019-04-30T08:06:19.020Z,62.18
2019-04-30T08:07:19.890Z,62.46
2019-04-30T08:08:24.531Z,63.03
2019-04-30T08:09:19.630Z,63.23
2019-04-30T08:10:18.903Z,62.27
2019-04-30T08:11:25.815Z,62.55
2019-04-30T08:12:25.503Z,62.27
2019-04-30T08:13:21.794Z,62.18
2019-04-30T08:14:21.145Z,61.60
2019-04-30T08:15:19.823Z,61.69
2019-04-30T08:16:19.279Z,62.65
2019-04-30T08:17:19.413Z,62.84
2019-04-30T08:18:19.544Z,61.79
2019-04-30T08:19:19.679Z,60.74
2019-04-30T08:20:19.887Z,61.60
2019-04-30T08:21:19.940Z,61.13
2019-04-30T08:22:20.070Z,59.50
2019-04-30T08:23:33.087Z,59.22
2019-04-30T08:24:20.457Z,59.59
2019-04-30T08:25:22.011Z,59.31
2019-04-30T08:26:20.586Z,60.07
2019-04-30T08:27:20.748Z,58.54
2019-04-30T08:28:20.867Z,58.00
2019-04-30T08:29:20.996Z,57.68
2019-04-30T08:30:26.209Z,57.71
2019-04-30T08:31:21.248Z,56.38
2019-04-30T08:32:21.381Z,53.89
2019-04-30T08:33:21.534Z,54.75
2019-04-30T08:34:21.658Z,55.71
2019-04-30T08:35:21.790Z,55.52
2019-04-30T08:36:21.940Z,54.37
2019-04-30T08:37:22.053Z,53.70
2019-04-30T08:38:22.182Z,54.18
2019-04-30T08:39:22.334Z,54.56
2019-04-30T08:40:22.466Z,54.66
2019-04-30T08:41:22.594Z,55.61
2019-04-30T08:42:30.938Z,55.52
2019-04-30T08:43:22.875Z,55.52
2019-04-30T08:44:23.000Z,55.13
2019-04-30T08:45:23.129Z,55.42
2019-04-30T08:46:23.291Z,54.08
2019-04-30T08:47:23.412Z,53.92
2019-04-30T08:48:23.548Z,55.64
2019-04-30T08:49:24.005Z,54.39
2019-04-30T08:50:23.850Z,54.97
2019-04-30T08:51:23.967Z,56.02
2019-04-30T08:52:24.110Z,54.78
2019-04-30T08:53:29.806Z,54.39
2019-04-30T08:54:24.396Z,54.68
2019-04-30T08:55:24.510Z,53.63
2019-04-30T08:56:24.642Z,52.87
2019-04-30T08:57:24.792Z,52.01
2019-04-30T08:58:24.907Z,52.48
2019-04-30T08:59:25.036Z,52.20
2019-04-30T09:00:25.167Z,51.72
2019-04-30T09:01:25.324Z,53.73
2019-04-30T09:02:25.455Z,54.21
2019-04-30T09:03:25.585Z,54.14
2019-04-30T09:04:25.739Z,54.43
2019-04-30T09:05:28.639Z,55.47
2019-04-30T09:06:25.961Z,53.47
2019-04-30T09:07:26.087Z,53.94
2019-04-30T09:08:26.234Z,52.51
2019-04-30T09:09:26.363Z,51.84
2019-04-30T09:10:26.502Z,52.61
2019-04-30T09:11:32.225Z,52.80
2019-04-30T09:12:26.790Z,52.42
2019-04-30T09:13:28.639Z,51.07
2019-04-30T09:14:27.053Z,51.46
2019-04-30T09:15:29.019Z,51.46
2019-04-30T09:16:29.355Z,50.98
2019-04-30T09:17:29.590Z,51.07
2019-04-30T09:18:29.212Z,51.56
2019-04-30T09:19:29.588Z,51.27
2019-04-30T09:20:29.178Z,50.02
2019-04-30T09:21:29.848Z,48.97
2019-04-30T09:22:29.325Z,49.26
2019-04-30T09:23:42.800Z,49.93
2019-04-30T09:24:30.712Z,48.97
2019-04-30T09:25:28.821Z,50.02
2019-04-30T09:26:29.127Z,48.49
2019-04-30T09:27:29.655Z,49.64
2019-04-30T09:28:29.449Z,50.02
2019-04-30T09:29:29.375Z,50.60
2019-04-30T09:30:29.935Z,51.27
2019-04-30T09:31:29.753Z,49.45
2019-04-30T09:32:29.479Z,48.21
2019-04-30T09:33:29.619Z,48.49
2019-04-30T09:34:29.755Z,48.88
2019-04-30T09:35:32.103Z,50.21
2019-04-30T09:36:30.036Z,51.46
2019-04-30T09:37:30.650Z,50.21
2019-04-30T09:38:30.299Z,50.91
2019-04-30T09:39:30.465Z,50.21
2019-04-30T09:40:32.495Z,49.16
2019-04-30T09:41:30.742Z,49.07
2019-04-30T09:42:30.856Z,49.48
2019-04-30T09:43:31.009Z,48.97
2019-04-30T09:44:31.240Z,48.42
2019-04-30T09:45:31.240Z,48.90
2019-04-30T09:46:31.365Z,48.90
2019-04-30T09:47:31.512Z,48.23
2019-04-30T09:48:31.644Z,48.61
2019-04-30T09:49:31.777Z,48.42
2019-04-30T09:50:32.093Z,48.23
2019-04-30T09:51:32.469Z,48.23
2019-04-30T09:52:33.971Z,48.42
2019-04-30T09:53:32.575Z,48.71
2019-04-30T09:54:32.603Z,48.13
2019-04-30T09:55:32.602Z,48.23
2019-04-30T09:56:32.851Z,48.13
2019-04-30T09:57:32.852Z,47.27
2019-04-30T09:58:32.983Z,47.18
2019-04-30T09:59:33.121Z,48.52
2019-04-30T10:00:33.271Z,48.71
2019-04-30T10:01:33.414Z,48.71
2019-04-30T10:02:33.533Z,48.13
2019-04-30T10:03:34.426Z,48.13
2019-04-30T10:04:34.094Z,51.03
2019-04-30T10:05:33.957Z,49.00
2019-04-30T10:06:39.708Z,48.25
2019-04-30T10:07:34.230Z,47.39
2019-04-30T10:08:46.135Z,48.73
2019-04-30T10:09:34.494Z,49.31
2019-04-30T10:10:34.624Z,49.79
2019-04-30T10:11:34.769Z,50.07
2019-04-30T10:12:34.900Z,50.93
2019-04-30T10:13:35.032Z,49.02
2019-04-30T10:14:35.163Z,48.35
2019-04-30T10:15:35.322Z,47.49
2019-04-30T10:16:35.460Z,47.11
2019-04-30T10:17:35.591Z,49.88
2019-04-30T10:18:35.719Z,49.21
2019-04-30T10:19:35.867Z,48.54
2019-04-30T10:20:36.081Z,47.39
2019-04-30T10:21:36.092Z,48.35
2019-04-30T10:22:36.218Z,51.22
2019-04-30T10:23:36.369Z,51.79
2019-04-30T10:24:36.500Z,51.73
2019-04-30T10:25:36.631Z,52.01
2019-04-30T10:26:36.774Z,51.63
2019-04-30T10:27:38.643Z,51.44
2019-04-30T10:28:37.168Z,51.44
2019-04-30T10:29:37.162Z,50.10
2019-04-30T10:30:37.288Z,49.62
2019-04-30T10:31:39.035Z,51.63
2019-04-30T10:32:37.587Z,50.38
2019-04-30T10:33:38.617Z,48.47
2019-04-30T10:34:37.850Z,47.22
2019-04-30T10:35:38.495Z,47.80
2019-04-30T10:36:41.234Z,49.05
2019-04-30T10:37:38.811Z,49.71
2019-04-30T10:38:39.368Z,49.52
2019-04-30T10:39:39.043Z,49.33
2019-04-30T10:40:39.118Z,49.81
2019-04-30T10:41:39.545Z,50.10
2019-04-30T10:42:39.296Z,51.06
2019-04-30T10:43:39.468Z,51.34
2019-04-30T10:44:39.200Z,50.48
2019-04-30T10:45:39.328Z,51.46
2019-04-30T10:46:39.458Z,50.32
2019-04-30T10:47:39.591Z,49.55
2019-04-30T10:48:39.718Z,50.22
2019-04-30T10:49:39.855Z,48.88
2019-04-30T10:50:40.928Z,48.49
2019-04-30T10:51:40.163Z,49.16
2019-04-30T10:52:40.282Z,48.40
2019-04-30T10:53:40.412Z,50.51
2019-04-30T10:54:40.542Z,50.70
2019-04-30T10:55:40.686Z,48.97
2019-04-30T10:56:40.924Z,47.75
2019-04-30T10:57:40.932Z,47.66
2019-04-30T10:58:41.124Z,49.10
2019-04-30T10:59:41.221Z,51.46
2019-04-30T11:00:41.374Z,49.84
2019-04-30T11:01:41.482Z,47.63
2019-04-30T11:02:41.602Z,48.80
2019-04-30T11:03:42.956Z,51.87
2019-04-30T11:04:41.900Z,51.40
2019-04-30T11:05:42.033Z,51.49
2019-04-30T11:06:42.157Z,52.64
2019-04-30T11:07:42.299Z,51.59
2019-04-30T11:08:42.541Z,50.15
2019-04-30T11:09:42.550Z,49.10
2019-04-30T11:10:42.680Z,48.93
2019-04-30T11:11:42.847Z,48.23
2019-04-30T11:12:42.962Z,47.20
2019-04-30T11:13:43.099Z,48.90
2019-04-30T11:14:43.252Z,48.74
2019-04-30T11:15:43.389Z,47.97
2019-04-30T11:16:43.602Z,47.30
2019-04-30T11:17:43.705Z,47.77
2019-04-30T11:18:43.948Z,47.49
2019-04-30T11:19:44.221Z,48.64
2019-04-30T11:20:44.173Z,48.07
2019-04-30T11:21:44.323Z,47.39
2019-04-30T11:22:44.440Z,51.81
2019-04-30T11:23:44.626Z,51.90
2019-04-30T11:24:56.491Z,52.31
2019-04-30T11:25:45.397Z,50.01
2019-04-30T11:26:45.774Z,49.91
2019-04-30T11:27:45.511Z,50.39
2019-04-30T11:28:45.316Z,50.13
2019-04-30T11:29:45.524Z,49.84
2019-04-30T11:30:45.631Z,48.40
2019-04-30T11:31:45.811Z,48.69
2019-04-30T11:32:45.787Z,47.44
2019-04-30T11:33:46.202Z,46.77
2019-04-30T11:34:46.010Z,46.50
2019-04-30T11:35:46.139Z,46.19
2019-04-30T11:36:46.273Z,47.36
2019-04-30T11:37:46.419Z,46.89
2019-04-30T11:38:48.637Z,46.79
2019-04-30T11:39:46.702Z,46.79
2019-04-30T11:40:48.498Z,46.41
2019-04-30T11:41:46.975Z,46.41
2019-04-30T11:42:47.132Z,46.31
2019-04-30T11:43:49.526Z,46.59
2019-04-30T11:44:48.795Z,46.50
2019-04-30T11:45:47.533Z,47.75
2019-04-30T11:46:49.442Z,46.41
2019-04-30T11:47:53.563Z,45.64
2019-04-30T11:48:48.977Z,43.81
2019-04-30T11:49:48.033Z,44.48
2019-04-30T11:50:49.663Z,44.70
2019-04-30T11:51:48.345Z,44.00
2019-04-30T11:52:48.466Z,42.97
2019-04-30T11:53:48.983Z,42.97
2019-04-30T11:54:53.946Z,43.07
2019-04-30T11:55:49.248Z,43.93
2019-04-30T11:56:50.458Z,44.31
2019-04-30T11:57:49.538Z,46.23
2019-04-30T11:58:49.300Z,43.64
2019-04-30T11:59:49.437Z,43.84
2019-04-30T12:00:49.627Z,44.89
2019-04-30T12:01:49.688Z,44.02
2019-04-30T12:02:52.793Z,45.47
2019-04-30T12:03:49.991Z,45.47
2019-04-30T12:04:50.121Z,45.49
2019-04-30T12:05:50.256Z,45.01
2019-04-30T12:06:50.399Z,42.49
2019-04-30T12:07:50.688Z,42.49
2019-04-30T12:08:50.676Z,42.39
2019-04-30T12:09:50.810Z,42.97
2019-04-30T12:10:50.946Z,42.58
2019-04-30T12:11:51.112Z,42.87
2019-04-30T12:12:51.260Z,43.93
2019-04-30T12:13:51.414Z,44.99
2019-04-30T12:14:51.527Z,43.45
2019-04-30T12:15:51.697Z,42.68
2019-04-30T12:16:51.895Z,42.97
2019-04-30T12:17:51.903Z,43.93
2019-04-30T12:18:52.057Z,43.85
2019-04-30T12:19:52.192Z,44.24
2019-04-30T12:20:52.331Z,43.76
2019-04-30T12:21:52.454Z,43.85
2019-04-30T12:22:52.582Z,43.47
2019-04-30T12:23:52.759Z,42.41
2019-04-30T12:25:02.591Z,45.20
2019-04-30T12:25:53.014Z,46.36
2019-04-30T12:26:53.139Z,45.29
2019-04-30T12:27:53.287Z,44.05
2019-04-30T12:28:53.429Z,45.10
2019-04-30T12:29:53.558Z,43.85
2019-04-30T12:30:53.700Z,45.20
2019-04-30T12:31:53.845Z,45.87
2019-04-30T12:32:53.988Z,44.14
2019-04-30T12:33:54.111Z,44.24
2019-04-30T12:34:54.258Z,44.72
2019-04-30T12:35:54.423Z,45.03
2019-04-30T12:36:54.589Z,43.68
2019-04-30T12:37:54.733Z,43.78
2019-04-30T12:38:54.867Z,44.07
2019-04-30T12:39:55.033Z,44.93
2019-04-30T12:40:55.161Z,44.17
2019-04-30T12:41:55.294Z,45.10
2019-04-30T12:42:55.434Z,43.78
2019-04-30T12:43:55.583Z,44.14
2019-04-30T12:44:55.717Z,44.55
2019-04-30T12:46:02.810Z,44.93
2019-04-30T12:46:56.043Z,44.45
2019-04-30T12:47:56.175Z,44.26
2019-04-30T12:48:56.307Z,45.03
2019-04-30T12:49:56.449Z,44.93
2019-04-30T12:50:56.601Z,45.51
2019-04-30T12:51:58.642Z,46.38
2019-04-30T12:52:56.886Z,45.63
2019-04-30T12:53:57.012Z,45.05